createdAt,value
2017-10-11T00:00:26.539Z,1014.33
2017-10-11T00:01:48.780Z,1014.34
2017-10-11T00:03:10.967Z,1014.32
2017-10-11T00:04:33.167Z,1014.35
2017-10-11T00:05:55.480Z,1014.31
2017-10-11T00:07:17.066Z,1014.31
2017-10-11T00:08:39.039Z,1014.33
2017-10-11T00:10:01.553Z,1014.34
2017-10-11T00:11:22.418Z,1014.32
2017-10-11T00:12:44.649Z,1014.33
2017-10-11T00:14:07.164Z,1014.31
2017-10-11T00:15:29.368Z,1014.31
2017-10-11T00:16:51.557Z,1014.27
2017-10-11T00:18:14.112Z,1014.25
2017-10-11T00:19:36.721Z,1014.27
2017-10-11T00:20:58.913Z,1014.25
2017-10-11T00:22:20.424Z,1014.29
2017-10-11T00:23:42.571Z,1014.28
2017-10-11T00:25:04.426Z,1014.24
2017-10-11T00:26:26.606Z,1014.25
2017-10-11T00:27:48.465Z,1014.26
2017-10-11T00:29:10.348Z,1014.23
2017-10-11T00:30:32.869Z,1014.21
2017-10-11T00:31:55.414Z,1014.21
2017-10-11T00:33:16.987Z,1014.22
2017-10-11T00:34:38.499Z,1014.22
2017-10-11T00:36:00.757Z,1014.23
2017-10-11T00:37:22.946Z,1014.23
2017-10-11T00:38:45.485Z,1014.19
2017-10-11T00:40:07.346Z,1014.22
2017-10-11T00:41:29.185Z,1014.18
2017-10-11T00:42:50.379Z,1014.17
2017-10-11T00:44:12.591Z,1014.16
2017-10-11T00:45:34.173Z,1014.21
2017-10-11T00:46:56.796Z,1014.15
2017-10-11T00:48:18.016Z,1014.19
2017-10-11T00:49:40.209Z,1014.21
2017-10-11T00:51:02.019Z,1014.19
2017-10-11T00:52:24.204Z,1014.2
2017-10-11T00:53:46.380Z,1014.19
2017-10-11T00:55:08.246Z,1014.24
2017-10-11T00:56:30.874Z,1014.23
2017-10-11T00:57:53.188Z,1014.21
2017-10-11T00:59:15.376Z,1014.2
2017-10-11T01:00:37.312Z,1014.19
2017-10-11T01:01:59.488Z,1014.22
2017-10-11T01:03:21.007Z,1014.16
2017-10-11T01:04:42.532Z,1014.16
2017-10-11T01:06:05.085Z,1014.13
2017-10-11T01:07:27.256Z,1014.09
2017-10-11T01:08:49.454Z,1014.09
2017-10-11T01:10:11.623Z,1014.09
2017-10-11T01:11:33.836Z,1014.14
2017-10-11T01:12:56.655Z,1014.14
2017-10-11T01:14:18.506Z,1014.12
2017-10-11T01:15:41.115Z,1014.09
2017-10-11T01:17:03.409Z,1014.14
2017-10-11T01:18:25.927Z,1014.12
2017-10-11T01:19:48.427Z,1014.07
2017-10-11T01:21:10.293Z,1014.09
2017-10-11T01:22:32.815Z,1014.14
2017-10-11T01:23:54.336Z,1014.13
2017-10-11T01:25:15.858Z,1014.14
2017-10-11T01:26:38.366Z,1014.1
2017-10-11T01:27:59.983Z,1014.14
2017-10-11T01:29:22.506Z,1014.1
2017-10-11T01:30:45.056Z,1014.16
2017-10-11T01:32:07.266Z,1014.14
2017-10-11T01:33:28.794Z,1014.14
2017-10-11T01:34:50.997Z,1014.09
2017-10-11T01:36:12.916Z,1014.1
2017-10-11T01:37:35.099Z,1014.11
2017-10-11T01:38:56.955Z,1014.06
2017-10-11T01:40:19.566Z,1014.06
2017-10-11T01:41:41.441Z,1014
2017-10-11T01:43:03.626Z,1014.04
2017-10-11T01:44:25.265Z,1014
2017-10-11T01:45:47.747Z,1013.98
2017-10-11T01:47:09.927Z,1013.98
2017-10-11T01:48:31.908Z,1013.98
2017-10-11T01:49:54.084Z,1013.98
2017-10-11T01:51:16.414Z,1013.95
2017-10-11T01:52:38.963Z,1014.02
2017-10-11T01:54:00.530Z,1014
2017-10-11T01:55:22.377Z,1013.93
2017-10-11T01:56:44.562Z,1013.97
2017-10-11T01:58:06.737Z,1013.97
2017-10-11T01:59:29.286Z,1013.98
2017-10-11T02:00:51.480Z,1013.95
2017-10-11T02:02:13.343Z,1013.94
2017-10-11T02:03:35.866Z,1013.92
2017-10-11T02:04:58.388Z,1013.96
2017-10-11T02:06:20.579Z,1013.96
2017-10-11T02:07:42.749Z,1013.93
2017-10-11T02:09:04.595Z,1013.92
2017-10-11T02:10:27.033Z,1013.89
2017-10-11T02:11:49.572Z,1013.86
2017-10-11T02:13:12.106Z,1013.86
2017-10-11T02:14:34.296Z,1013.86
2017-10-11T02:15:56.147Z,1013.87
2017-10-11T02:17:18.339Z,1013.9
2017-10-11T02:18:40.478Z,1013.88
2017-10-11T02:20:02.697Z,1013.91
2017-10-11T02:21:25.219Z,1013.89
2017-10-11T02:22:47.086Z,1013.89
2017-10-11T02:24:09.260Z,1013.9
2017-10-11T02:25:31.586Z,1013.85
2017-10-11T02:26:53.767Z,1013.87
2017-10-11T02:28:15.614Z,1013.85
2017-10-11T02:29:38.238Z,1013.85
2017-10-11T02:31:00.097Z,1013.86
2017-10-11T02:32:22.618Z,1013.83
2017-10-11T02:33:44.796Z,1013.79
2017-10-11T02:35:06.357Z,1013.82
2017-10-11T02:36:28.875Z,1013.8
2017-10-11T02:37:51.075Z,1013.74
2017-10-11T02:39:12.924Z,1013.76
2017-10-11T02:40:34.765Z,1013.71
2017-10-11T02:41:56.600Z,1013.73
2017-10-11T02:43:17.786Z,1013.7
2017-10-11T02:44:40.031Z,1013.69
2017-10-11T02:46:02.141Z,1013.68
2017-10-11T02:47:24.786Z,1013.73
2017-10-11T02:48:46.969Z,1013.65
2017-10-11T02:50:08.515Z,1013.69
2017-10-11T02:51:31.083Z,1013.69
2017-10-11T02:52:52.654Z,1013.69
2017-10-11T02:54:14.836Z,1013.66
2017-10-11T02:55:37.027Z,1013.63
2017-10-11T02:56:58.945Z,1013.63
2017-10-11T02:58:20.799Z,1013.65
2017-10-11T02:59:42.656Z,1013.63
2017-10-11T03:01:04.232Z,1013.66
2017-10-11T03:02:26.239Z,1013.6
2017-10-11T03:03:48.235Z,1013.58
2017-10-11T03:05:10.089Z,1013.58
2017-10-11T03:06:31.646Z,1013.55
2017-10-11T03:07:54.195Z,1013.53
2017-10-11T03:09:16.711Z,1013.54
2017-10-11T03:10:38.944Z,1013.58
2017-10-11T03:12:00.455Z,1013.57
2017-10-11T03:13:22.284Z,1013.62
2017-10-11T03:14:44.165Z,1013.6
2017-10-11T03:16:06.415Z,1013.52
2017-10-11T03:17:28.597Z,1013.49
2017-10-11T03:18:50.550Z,1013.52
2017-10-11T03:20:12.749Z,1013.5
2017-10-11T03:21:34.938Z,1013.5
2017-10-11T03:22:56.915Z,1013.5
2017-10-11T03:24:19.103Z,1013.5
2017-10-11T03:25:40.288Z,1013.53
2017-10-11T03:27:02.146Z,1013.46
2017-10-11T03:28:24.365Z,1013.47
2017-10-11T03:29:46.796Z,1013.43
2017-10-11T03:31:08.659Z,1013.44
2017-10-11T03:32:30.175Z,1013.41
2017-10-11T03:33:52.044Z,1013.43
2017-10-11T03:35:14.204Z,1013.46
2017-10-11T03:36:35.407Z,1013.42
2017-10-11T03:37:57.635Z,1013.54
2017-10-11T03:39:19.841Z,1013.5
2017-10-11T03:40:42.017Z,1013.5
2017-10-11T03:42:04.244Z,1013.5
2017-10-11T03:43:26.451Z,1013.58
2017-10-11T03:44:47.996Z,1013.58
2017-10-11T03:46:10.544Z,1013.59
2017-10-11T03:47:32.776Z,1013.57
2017-10-11T03:48:54.975Z,1013.54
2017-10-11T03:50:17.492Z,1013.55
2017-10-11T03:51:40.033Z,1013.53
2017-10-11T03:53:02.228Z,1013.41
2017-10-11T03:54:24.404Z,1013.42
2017-10-11T03:55:45.597Z,1013.41
2017-10-11T03:57:07.696Z,1013.45
2017-10-11T03:58:29.592Z,1013.42
2017-10-11T03:59:50.772Z,1013.4
2017-10-11T04:01:12.610Z,1013.34
2017-10-11T04:02:35.475Z,1013.36
2017-10-11T04:03:56.985Z,1013.23
2017-10-11T04:05:18.486Z,1013.27
2017-10-11T04:06:40.665Z,1013.28
2017-10-11T04:08:02.526Z,1013.24
2017-10-11T04:09:25.553Z,1013.25
2017-10-11T04:10:48.086Z,1013.33
2017-10-11T04:12:10.685Z,1013.33
2017-10-11T04:13:33.278Z,1013.36
2017-10-11T04:14:55.144Z,1013.34
2017-10-11T04:16:16.821Z,1013.36
2017-10-11T04:17:39.032Z,1013.28
2017-10-11T04:19:01.514Z,1013.31
2017-10-11T04:20:22.736Z,1013.33
2017-10-11T04:21:44.595Z,1013.32
2017-10-11T04:23:06.113Z,1013.32
2017-10-11T04:24:28.285Z,1013.2
2017-10-11T04:25:50.598Z,1013.28
2017-10-11T04:27:12.475Z,1013.25
2017-10-11T04:28:34.391Z,1013.24
2017-10-11T04:29:56.891Z,1013.3
2017-10-11T04:31:19.092Z,1013.24
2017-10-11T04:32:41.354Z,1013.28
2017-10-11T04:34:03.975Z,1013.26
2017-10-11T04:35:25.575Z,1013.28
2017-10-11T04:36:47.094Z,1013.24
2017-10-11T04:38:08.925Z,1013.25
2017-10-11T04:39:30.439Z,1013.28
2017-10-11T04:40:52.294Z,1013.31
2017-10-11T04:42:14.165Z,1013.27
2017-10-11T04:43:36.024Z,1013.25
2017-10-11T04:44:58.214Z,1013.17
2017-10-11T04:46:20.713Z,1013.15
2017-10-11T04:47:42.894Z,1013.27
2017-10-11T04:49:04.418Z,1013.24
2017-10-11T04:50:26.267Z,1013.24
2017-10-11T04:51:48.416Z,1013.29
2017-10-11T04:53:10.601Z,1013.3
2017-10-11T04:54:32.813Z,1013.25
2017-10-11T04:55:55.104Z,1013.29
2017-10-11T04:57:16.993Z,1013.28
2017-10-11T04:58:39.188Z,1013.31
2017-10-11T05:00:00.798Z,1013.34
2017-10-11T05:01:22.964Z,1013.34
2017-10-11T05:02:45.919Z,1013.31
2017-10-11T05:04:08.437Z,1013.3
2017-10-11T05:05:30.629Z,1013.34
2017-10-11T05:06:53.143Z,1013.29
2017-10-11T05:08:15.265Z,1013.33
2017-10-11T05:09:37.864Z,1013.35
2017-10-11T05:10:59.781Z,1013.34
2017-10-11T05:12:21.637Z,1013.37
2017-10-11T05:13:43.844Z,1013.37
2017-10-11T05:15:05.042Z,1013.36
2017-10-11T05:16:26.890Z,1013.33
2017-10-11T05:17:49.078Z,1013.3
2017-10-11T05:19:10.940Z,1013.36
2017-10-11T05:20:33.564Z,1013.32
2017-10-11T05:21:55.101Z,1013.33
2017-10-11T05:23:16.356Z,1013.38
2017-10-11T05:24:38.525Z,1013.36
2017-10-11T05:26:00.703Z,1013.35
2017-10-11T05:27:22.894Z,1013.32
2017-10-11T05:28:45.135Z,1013.32
2017-10-11T05:30:07.238Z,1013.34
2017-10-11T05:31:29.785Z,1013.33
2017-10-11T05:32:52.306Z,1013.34
2017-10-11T05:34:14.165Z,1013.31
2017-10-11T05:35:36.016Z,1013.29
2017-10-11T05:36:58.225Z,1013.31
2017-10-11T05:38:20.767Z,1013.29
2017-10-11T05:39:42.985Z,1013.3
2017-10-11T05:41:05.094Z,1013.28
2017-10-11T05:42:27.293Z,1013.27
2017-10-11T05:43:49.596Z,1013.3
2017-10-11T05:45:12.124Z,1013.28
2017-10-11T05:46:34.239Z,1013.24
2017-10-11T05:47:56.434Z,1013.25
2017-10-11T05:49:17.955Z,1013.29
2017-10-11T05:50:40.177Z,1013.3
2017-10-11T05:52:02.694Z,1013.3
2017-10-11T05:53:24.223Z,1013.28
2017-10-11T05:54:46.595Z,1013.32
2017-10-11T05:56:09.165Z,1013.28
2017-10-11T05:57:32.000Z,1013.29
2017-10-11T05:58:54.193Z,1013.34
2017-10-11T06:00:15.717Z,1013.34
2017-10-11T06:01:37.586Z,1013.36
2017-10-11T06:02:59.745Z,1013.31
2017-10-11T06:04:22.058Z,1013.31
2017-10-11T06:05:44.584Z,1013.35
2017-10-11T06:07:06.767Z,1013.41
2017-10-11T06:08:29.283Z,1013.41
2017-10-11T06:09:51.136Z,1013.42
2017-10-11T06:11:13.005Z,1013.45
2017-10-11T06:12:34.567Z,1013.43
2017-10-11T06:13:56.754Z,1013.43
2017-10-11T06:15:18.605Z,1013.43
2017-10-11T06:16:40.462Z,1013.43
2017-10-11T06:18:02.643Z,1013.42
2017-10-11T06:19:25.146Z,1013.44
2017-10-11T06:20:47.141Z,1013.5
2017-10-11T06:22:09.383Z,1013.45
2017-10-11T06:23:31.624Z,1013.43
2017-10-11T06:24:53.827Z,1013.43
2017-10-11T06:26:16.445Z,1013.44
2017-10-11T06:27:38.674Z,1013.4
2017-10-11T06:29:00.573Z,1013.38
2017-10-11T06:30:23.064Z,1013.39
2017-10-11T06:31:45.313Z,1013.43
2017-10-11T06:33:06.858Z,1013.42
2017-10-11T06:34:28.699Z,1013.49
2017-10-11T06:35:51.137Z,1013.49
2017-10-11T06:37:12.681Z,1013.41
2017-10-11T06:38:35.291Z,1013.45
2017-10-11T06:39:58.003Z,1013.39
2017-10-11T06:41:20.619Z,1013.43
2017-10-11T06:42:42.232Z,1013.43
2017-10-11T06:44:04.408Z,1013.38
2017-10-11T06:45:26.002Z,1013.43
2017-10-11T06:46:48.231Z,1013.46
2017-10-11T06:48:10.468Z,1013.46
2017-10-11T06:49:32.648Z,1013.45
2017-10-11T06:50:54.517Z,1013.48
2017-10-11T06:52:16.765Z,1013.46
2017-10-11T06:53:38.968Z,1013.44
2017-10-11T06:55:01.164Z,1013.48
2017-10-11T06:56:23.015Z,1013.49
2017-10-11T06:57:45.322Z,1013.53
2017-10-11T06:59:07.597Z,1013.59
2017-10-11T07:00:30.174Z,1013.63
2017-10-11T07:01:52.694Z,1013.63
2017-10-11T07:03:15.248Z,1013.64
2017-10-11T07:04:37.472Z,1013.6
2017-10-11T07:05:59.725Z,1013.57
2017-10-11T07:07:21.924Z,1013.59
2017-10-11T07:08:43.694Z,1013.62
2017-10-11T07:10:05.892Z,1013.59
2017-10-11T07:11:28.113Z,1013.64
2017-10-11T07:12:50.314Z,1013.62
2017-10-11T07:14:12.769Z,1013.63
2017-10-11T07:15:35.084Z,1013.66
2017-10-11T07:16:57.288Z,1013.66
2017-10-11T07:18:19.178Z,1013.66
2017-10-11T07:19:41.954Z,1013.66
2017-10-11T07:21:03.852Z,1013.65
2017-10-11T07:22:25.723Z,1013.64
2017-10-11T07:23:47.579Z,1013.66
2017-10-11T07:25:09.787Z,1013.67
2017-10-11T07:26:31.980Z,1013.65
2017-10-11T07:27:53.894Z,1013.68
2017-10-11T07:29:15.787Z,1013.62
2017-10-11T07:30:37.641Z,1013.66
2017-10-11T07:32:00.173Z,1013.69
2017-10-11T07:33:22.378Z,1013.66
2017-10-11T07:34:44.649Z,1013.67
2017-10-11T07:36:06.495Z,1013.71
2017-10-11T07:37:28.673Z,1013.65
2017-10-11T07:38:50.295Z,1013.75
2017-10-11T07:40:12.488Z,1013.69
2017-10-11T07:41:34.677Z,1013.66
2017-10-11T07:42:56.543Z,1013.61
2017-10-11T07:44:18.066Z,1013.68
2017-10-11T07:45:40.354Z,1013.62
2017-10-11T07:47:02.818Z,1013.61
2017-10-11T07:48:25.090Z,1013.65
2017-10-11T07:49:47.630Z,1013.63
2017-10-11T07:51:09.155Z,1013.65
2017-10-11T07:52:31.626Z,1013.62
2017-10-11T07:53:53.488Z,1013.65
2017-10-11T07:55:15.694Z,1013.61
2017-10-11T07:56:37.544Z,1013.7
2017-10-11T07:58:00.137Z,1013.71
2017-10-11T07:59:22.782Z,1013.74
2017-10-11T08:00:45.374Z,1013.8
2017-10-11T08:02:07.227Z,1013.64
2017-10-11T08:03:29.425Z,1013.65
2017-10-11T08:04:51.616Z,1013.7
2017-10-11T08:06:14.137Z,1013.82
2017-10-11T08:07:36.318Z,1013.86
2017-10-11T08:08:58.868Z,1013.84
2017-10-11T08:10:20.714Z,1013.9
2017-10-11T08:11:42.572Z,1013.8
2017-10-11T08:13:04.762Z,1013.89
2017-10-11T08:14:26.275Z,1013.91
2017-10-11T08:15:48.814Z,1013.91
2017-10-11T08:17:10.364Z,1013.96
2017-10-11T08:18:31.615Z,1013.92
2017-10-11T08:19:54.315Z,1013.93
2017-10-11T08:21:16.604Z,1013.88
2017-10-11T08:22:39.152Z,1013.99
2017-10-11T08:24:01.735Z,1013.95
2017-10-11T08:25:24.273Z,1013.94
2017-10-11T08:26:46.809Z,1013.93
2017-10-11T08:28:08.353Z,1013.9
2017-10-11T08:29:30.230Z,1013.87
2017-10-11T08:30:52.774Z,1013.89
2017-10-11T08:32:15.315Z,1013.98
2017-10-11T08:33:36.172Z,1013.94
2017-10-11T08:34:58.693Z,1013.98
2017-10-11T08:36:20.925Z,1013.95
2017-10-11T08:37:42.453Z,1014.04
2017-10-11T08:39:04.665Z,1013.97
2017-10-11T08:40:26.536Z,1014.03
2017-10-11T08:41:49.093Z,1014.1
2017-10-11T08:43:11.282Z,1014.1
2017-10-11T08:44:33.866Z,1014.15
2017-10-11T08:45:55.771Z,1014.04
2017-10-11T08:47:18.595Z,1014.08
2017-10-11T08:48:40.795Z,1014.11
2017-10-11T08:50:02.661Z,1014.08
2017-10-11T08:51:25.197Z,1014.13
2017-10-11T08:52:47.732Z,1014.2
2017-10-11T08:54:09.605Z,1014.15
2017-10-11T08:55:32.126Z,1014.21
2017-10-11T08:56:54.334Z,1014.19
2017-10-11T08:58:16.204Z,1014.22
2017-10-11T08:59:38.418Z,1014.22
2017-10-11T09:01:00.732Z,1014.16
2017-10-11T09:02:23.274Z,1014.18
2017-10-11T09:03:45.539Z,1014.24
2017-10-11T09:05:08.088Z,1014.21
2017-10-11T09:06:29.974Z,1014.23
2017-10-11T09:07:52.158Z,1014.3
2017-10-11T09:09:14.027Z,1014.24
2017-10-11T09:10:35.911Z,1014.23
2017-10-11T09:11:57.765Z,1014.28
2017-10-11T09:13:19.635Z,1014.27
2017-10-11T09:14:41.525Z,1014.26
2017-10-11T09:16:04.173Z,1014.32
2017-10-11T09:17:26.385Z,1014.29
2017-10-11T09:18:47.958Z,1014.27
2017-10-11T09:20:10.681Z,1014.29
2017-10-11T09:21:32.561Z,1014.25
2017-10-11T09:22:55.123Z,1014.32
2017-10-11T09:24:17.301Z,1014.31
2017-10-11T09:25:39.802Z,1014.31
2017-10-11T09:27:01.453Z,1014.22
2017-10-11T09:28:23.706Z,1014.22
2017-10-11T09:29:45.338Z,1014.23
2017-10-11T09:31:07.195Z,1014.33
2017-10-11T09:32:29.372Z,1014.21
2017-10-11T09:33:51.927Z,1014.24
2017-10-11T09:35:13.803Z,1014.2
2017-10-11T09:36:35.663Z,1014.15
2017-10-11T09:37:57.524Z,1014.2
2017-10-11T09:39:19.039Z,1014.23
2017-10-11T09:40:40.903Z,1014.21
2017-10-11T09:42:03.063Z,1014.25
2017-10-11T09:43:25.264Z,1014.2
2017-10-11T09:44:47.455Z,1014.24
2017-10-11T09:46:09.683Z,1014.22
2017-10-11T09:47:32.554Z,1014.23
2017-10-11T09:48:54.751Z,1014.24
2017-10-11T09:50:16.614Z,1014.23
2017-10-11T09:51:39.146Z,1014.27
2017-10-11T09:53:01.800Z,1014.24
2017-10-11T09:54:23.993Z,1014.23
2017-10-11T09:55:46.233Z,1014.21
2017-10-11T09:57:08.096Z,1014.24
2017-10-11T09:58:30.611Z,1014.26
2017-10-11T09:59:52.482Z,1014.27
2017-10-11T10:01:14.716Z,1014.31
2017-10-11T10:02:37.283Z,1014.3
2017-10-11T10:03:58.817Z,1014.24
2017-10-11T10:05:21.009Z,1014.35
2017-10-11T10:06:43.407Z,1014.3
2017-10-11T10:08:05.606Z,1014.31
2017-10-11T10:09:28.162Z,1014.33
2017-10-11T10:10:50.712Z,1014.33
2017-10-11T10:12:12.262Z,1014.32
2017-10-11T10:13:34.455Z,1014.35
2017-10-11T10:14:56.084Z,1014.27
2017-10-11T10:16:18.623Z,1014.46
2017-10-11T10:17:40.802Z,1014.44
2017-10-11T10:19:02.993Z,1014.47
2017-10-11T10:20:25.223Z,1014.36
2017-10-11T10:21:47.777Z,1014.49
2017-10-11T10:23:09.975Z,1014.5
2017-10-11T10:24:32.533Z,1014.46
2017-10-11T10:25:55.182Z,1014.47
2017-10-11T10:27:17.391Z,1014.49
2017-10-11T10:28:39.276Z,1014.54
2017-10-11T10:30:01.123Z,1014.5
2017-10-11T10:31:23.674Z,1014.54
2017-10-11T10:32:45.225Z,1014.55
2017-10-11T10:34:07.448Z,1014.56
2017-10-11T10:35:29.295Z,1014.58
2017-10-11T10:36:51.163Z,1014.61
2017-10-11T10:38:14.683Z,1014.6
2017-10-11T10:39:36.915Z,1014.6
2017-10-11T10:40:59.444Z,1014.55
2017-10-11T10:42:21.702Z,1014.51
2017-10-11T10:43:43.227Z,1014.56
2017-10-11T10:45:05.764Z,1014.53
2017-10-11T10:46:28.119Z,1014.48
2017-10-11T10:47:50.655Z,1014.49
2017-10-11T10:49:12.542Z,1014.53
2017-10-11T10:50:34.766Z,1014.54
2017-10-11T10:51:56.974Z,1014.51
2017-10-11T10:53:18.508Z,1014.51
2017-10-11T10:54:41.084Z,1014.48
2017-10-11T10:56:03.636Z,1014.48
2017-10-11T10:57:25.954Z,1014.5
2017-10-11T10:58:48.557Z,1014.52
2017-10-11T11:00:10.771Z,1014.52
2017-10-11T11:01:33.311Z,1014.56
2017-10-11T11:02:55.857Z,1014.5
2017-10-11T11:04:18.075Z,1014.53
2017-10-11T11:05:40.618Z,1014.55
2017-10-11T11:07:02.490Z,1014.59
2017-10-11T11:08:24.771Z,1014.49
2017-10-11T11:09:46.645Z,1014.47
2017-10-11T11:11:09.241Z,1014.52
2017-10-11T11:12:31.555Z,1014.48
2017-10-11T11:13:53.768Z,1014.45
2017-10-11T11:15:16.033Z,1014.51
2017-10-11T11:16:38.577Z,1014.45
2017-10-11T11:18:00.456Z,1014.53
2017-10-11T11:19:22.648Z,1014.45
2017-10-11T11:20:44.905Z,1014.48
2017-10-11T11:22:06.619Z,1014.54
2017-10-11T11:23:28.484Z,1014.5
2017-10-11T11:24:51.040Z,1014.58
2017-10-11T11:26:13.268Z,1014.52
2017-10-11T11:27:35.175Z,1014.54
2017-10-11T11:28:57.048Z,1014.49
2017-10-11T11:30:19.265Z,1014.47
2017-10-11T11:31:40.803Z,1014.46
2017-10-11T11:33:03.089Z,1014.46
2017-10-11T11:34:25.299Z,1014.44
2017-10-11T11:35:47.912Z,1014.38
2017-10-11T11:37:09.944Z,1014.4
2017-10-11T11:38:32.147Z,1014.41
2017-10-11T11:39:54.367Z,1014.42
2017-10-11T11:41:16.565Z,1014.45
2017-10-11T11:42:39.276Z,1014.47
2017-10-11T11:44:00.458Z,1014.48
2017-10-11T11:45:22.408Z,1014.45
2017-10-11T11:46:44.305Z,1014.49
2017-10-11T11:48:06.767Z,1014.48
2017-10-11T11:49:28.966Z,1014.39
2017-10-11T11:50:51.486Z,1014.5
2017-10-11T11:52:13.699Z,1014.48
2017-10-11T11:53:36.256Z,1014.48
2017-10-11T11:54:58.594Z,1014.39
2017-10-11T11:56:20.908Z,1014.49
2017-10-11T11:57:43.112Z,1014.38
2017-10-11T11:59:05.327Z,1014.43
2017-10-11T12:00:27.206Z,1014.37
2017-10-11T12:01:49.506Z,1014.43
2017-10-11T12:03:12.051Z,1014.41
2017-10-11T12:04:34.271Z,1014.43
2017-10-11T12:05:56.515Z,1014.47
2017-10-11T12:07:18.387Z,1014.48
2017-10-11T12:08:40.304Z,1014.44
2017-10-11T12:10:03.094Z,1014.43
2017-10-11T12:11:25.311Z,1014.4
2017-10-11T12:12:47.307Z,1014.43
2017-10-11T12:14:09.968Z,1014.41
2017-10-11T12:15:32.783Z,1014.43
2017-10-11T12:16:55.699Z,1014.37
2017-10-11T12:18:17.892Z,1014.43
2017-10-11T12:19:40.123Z,1014.4
2017-10-11T12:21:02.448Z,1014.35
2017-10-11T12:22:24.719Z,1014.35
2017-10-11T12:23:47.275Z,1014.37
2017-10-11T12:25:09.185Z,1014.37
2017-10-11T12:26:31.716Z,1014.31
2017-10-11T12:27:53.638Z,1014.3
2017-10-11T12:29:15.908Z,1014.31
2017-10-11T12:30:37.799Z,1014.28
2017-10-11T12:32:00.671Z,1014.26
2017-10-11T12:33:23.237Z,1014.3
2017-10-11T12:34:45.785Z,1014.25
2017-10-11T12:36:07.676Z,1014.22
2017-10-11T12:37:30.336Z,1014.21
2017-10-11T12:38:52.250Z,1014.26
2017-10-11T12:40:14.961Z,1014.25
2017-10-11T12:41:37.194Z,1014.28
2017-10-11T12:42:59.004Z,1014.28
2017-10-11T12:44:21.621Z,1014.24
2017-10-11T12:45:43.831Z,1014.24
2017-10-11T12:47:06.086Z,1014.22
2017-10-11T12:48:28.283Z,1014.27
2017-10-11T12:49:50.516Z,1014.19
2017-10-11T12:51:12.726Z,1014.15
2017-10-11T12:52:35.078Z,1014.16
2017-10-11T12:53:56.934Z,1014.12
2017-10-11T12:55:19.154Z,1014.13
2017-10-11T12:56:41.015Z,1014.09
2017-10-11T12:58:02.951Z,1014
2017-10-11T12:59:25.620Z,1014.01
2017-10-11T13:00:48.174Z,1014.03
2017-10-11T13:02:10.467Z,1014.01
2017-10-11T13:03:32.683Z,1014.04
2017-10-11T13:04:54.896Z,1014.06
2017-10-11T13:06:17.113Z,1014.06
2017-10-11T13:07:39.026Z,1014.09
2017-10-11T13:09:01.248Z,1014.03
2017-10-11T13:10:23.450Z,1014.03
2017-10-11T13:11:46.001Z,1014.14
2017-10-11T13:13:07.855Z,1014.12
2017-10-11T13:14:30.416Z,1014.09
2017-10-11T13:15:52.596Z,1014.11
2017-10-11T13:17:15.155Z,1014.12
2017-10-11T13:18:37.015Z,1014.11
2017-10-11T13:19:59.294Z,1014.16
2017-10-11T13:21:21.504Z,1014.13
2017-10-11T13:22:43.704Z,1014.16
2017-10-11T13:24:05.584Z,1014.1
2017-10-11T13:25:28.135Z,1014.12
2017-10-11T13:26:50.356Z,1014.14
2017-10-11T13:28:12.899Z,1014.12
2017-10-11T13:29:35.117Z,1014.12
2017-10-11T13:30:57.633Z,1014.16
2017-10-11T13:32:20.308Z,1014.17
2017-10-11T13:33:42.529Z,1014.15
2017-10-11T13:35:05.068Z,1014.07
2017-10-11T13:36:26.675Z,1014.1
2017-10-11T13:37:49.202Z,1014.04
2017-10-11T13:39:11.067Z,1014.07
2017-10-11T13:40:33.594Z,1014.03
2017-10-11T13:41:56.147Z,1014.01
2017-10-11T13:43:17.667Z,1014.01
2017-10-11T13:44:40.195Z,1014.01
2017-10-11T13:46:02.418Z,1013.95
2017-10-11T13:47:25.018Z,1013.94
2017-10-11T13:48:47.249Z,1013.89
2017-10-11T13:50:09.494Z,1013.91
2017-10-11T13:51:31.355Z,1013.87
2017-10-11T13:52:53.953Z,1013.93
2017-10-11T13:54:16.806Z,1013.9
2017-10-11T13:55:39.057Z,1013.98
2017-10-11T13:57:01.608Z,1013.94
2017-10-11T13:58:24.154Z,1013.95
2017-10-11T13:59:45.689Z,1013.96
2017-10-11T14:01:07.903Z,1013.94
2017-10-11T14:02:30.107Z,1013.92
2017-10-11T14:03:52.315Z,1013.9
2017-10-11T14:05:14.198Z,1013.88
2017-10-11T14:06:35.736Z,1013.86
2017-10-11T14:07:57.253Z,1013.92
2017-10-11T14:09:19.445Z,1013.91
2017-10-11T14:10:41.307Z,1013.85
2017-10-11T14:12:03.862Z,1013.88
2017-10-11T14:13:25.751Z,1013.9
2017-10-11T14:14:47.627Z,1013.95
2017-10-11T14:16:09.851Z,1013.9
2017-10-11T14:17:31.716Z,1013.93
2017-10-11T14:18:54.222Z,1013.95
2017-10-11T14:20:16.426Z,1013.92
2017-10-11T14:21:38.905Z,1013.88
2017-10-11T14:23:01.096Z,1013.89
2017-10-11T14:24:23.648Z,1013.83
2017-10-11T14:25:45.525Z,1013.87
2017-10-11T14:27:07.198Z,1013.89
2017-10-11T14:28:29.787Z,1013.87
2017-10-11T14:29:52.526Z,1013.87
2017-10-11T14:31:15.109Z,1013.86
2017-10-11T14:32:37.936Z,1013.81
2017-10-11T14:34:00.189Z,1013.8
2017-10-11T14:35:22.408Z,1013.8
2017-10-11T14:36:44.626Z,1013.86
2017-10-11T14:38:06.215Z,1013.78
2017-10-11T14:39:28.426Z,1013.8
2017-10-11T14:40:50.680Z,1013.76
2017-10-11T14:42:13.219Z,1013.79
2017-10-11T14:43:35.080Z,1013.78
2017-10-11T14:44:56.964Z,1013.81
2017-10-11T14:46:19.400Z,1013.73
2017-10-11T14:47:41.569Z,1013.7
2017-10-11T14:49:03.101Z,1013.75
2017-10-11T14:50:25.286Z,1013.75
2017-10-11T14:51:47.122Z,1013.81
2017-10-11T14:53:09.339Z,1013.73
2017-10-11T14:54:31.339Z,1013.71
2017-10-11T14:55:53.857Z,1013.72
2017-10-11T14:57:15.804Z,1013.73
2017-10-11T14:58:37.337Z,1013.77
2017-10-11T14:59:59.197Z,1013.76
2017-10-11T15:01:20.806Z,1013.76
2017-10-11T15:02:42.344Z,1013.8
2017-10-11T15:04:04.307Z,1013.79
2017-10-11T15:05:26.301Z,1013.76
2017-10-11T15:06:48.478Z,1013.73
2017-10-11T15:08:10.673Z,1013.73
2017-10-11T15:09:32.615Z,1013.7
2017-10-11T15:10:54.859Z,1013.77
2017-10-11T15:12:17.377Z,1013.7
2017-10-11T15:13:39.616Z,1013.67
2017-10-11T15:15:01.477Z,1013.74
2017-10-11T15:16:24.010Z,1013.73
2017-10-11T15:17:45.858Z,1013.72
2017-10-11T15:19:08.118Z,1013.78
2017-10-11T15:20:30.323Z,1013.78
2017-10-11T15:21:52.805Z,1013.76
2017-10-11T15:23:14.666Z,1013.72
2017-10-11T15:24:36.549Z,1013.72
2017-10-11T15:25:58.739Z,1013.72
2017-10-11T15:27:20.950Z,1013.72
2017-10-11T15:28:43.148Z,1013.7
2017-10-11T15:30:05.659Z,1013.67
2017-10-11T15:31:28.219Z,1013.73
2017-10-11T15:32:50.433Z,1013.73
2017-10-11T15:34:11.957Z,1013.72
2017-10-11T15:35:34.146Z,1013.75
2017-10-11T15:36:55.668Z,1013.72
2017-10-11T15:38:17.878Z,1013.74
2017-10-11T15:39:40.210Z,1013.74
2017-10-11T15:41:02.403Z,1013.75
2017-10-11T15:42:24.938Z,1013.74
2017-10-11T15:43:47.492Z,1013.71
2017-10-11T15:45:09.384Z,1013.71
2017-10-11T15:46:31.589Z,1013.74
2017-10-11T15:47:54.006Z,1013.75
2017-10-11T15:49:16.589Z,1013.75
2017-10-11T15:50:38.446Z,1013.74
2017-10-11T15:52:00.994Z,1013.71
2017-10-11T15:53:22.986Z,1013.74
2017-10-11T15:54:44.856Z,1013.66
2017-10-11T15:56:07.487Z,1013.68
2017-10-11T15:57:30.056Z,1013.68
2017-10-11T15:58:52.346Z,1013.7
2017-10-11T16:00:14.214Z,1013.71
2017-10-11T16:01:36.821Z,1013.65
2017-10-11T16:02:59.016Z,1013.64
2017-10-11T16:04:21.563Z,1013.69
2017-10-11T16:05:44.126Z,1013.62
2017-10-11T16:07:05.637Z,1013.64
2017-10-11T16:08:27.620Z,1013.62
2017-10-11T16:09:49.476Z,1013.58
2017-10-11T16:11:12.344Z,1013.59
2017-10-11T16:12:34.619Z,1013.65
2017-10-11T16:13:56.821Z,1013.59
2017-10-11T16:15:19.027Z,1013.58
2017-10-11T16:16:41.257Z,1013.61
2017-10-11T16:18:03.789Z,1013.53
2017-10-11T16:19:26.319Z,1013.59
2017-10-11T16:20:48.859Z,1013.59
2017-10-11T16:22:11.889Z,1013.56
2017-10-11T16:23:34.417Z,1013.56
2017-10-11T16:24:56.967Z,1013.56
2017-10-11T16:26:19.196Z,1013.62
2017-10-11T16:27:42.091Z,1013.6
2017-10-11T16:29:04.391Z,1013.6
2017-10-11T16:30:26.623Z,1013.59
2017-10-11T16:31:49.161Z,1013.57
2017-10-11T16:33:11.388Z,1013.58
2017-10-11T16:34:33.977Z,1013.56
2017-10-11T16:35:55.845Z,1013.6
2017-10-11T16:37:18.406Z,1013.58